createdAt,value
2019-01-14T00:00:03.686Z,99114.73
2019-01-14T00:02:35.590Z,99108.79
2019-01-14T00:05:07.822Z,99113.02
2019-01-14T00:07:39.700Z,99122.95
2019-01-14T00:10:11.630Z,99120.34
2019-01-14T00:12:43.510Z,99120.02
2019-01-14T00:15:15.745Z,99120.55
2019-01-14T00:17:47.567Z,99123.26
2019-01-14T00:20:20.521Z,99118.34
2019-01-14T00:22:52.429Z,99121.86
2019-01-14T00:25:24.304Z,99125.66
2019-01-14T00:27:56.230Z,99129.67
2019-01-14T00:30:28.100Z,99136.50
2019-01-14T00:32:59.994Z,99140.96
2019-01-14T00:35:31.827Z,99141.50
2019-01-14T00:38:03.789Z,99147.80
2019-01-14T00:40:35.648Z,99141.81
2019-01-14T00:43:07.745Z,99146.04
2019-01-14T00:45:39.753Z,99147.35
2019-01-14T00:48:11.656Z,99145.64
2019-01-14T00:50:43.562Z,99153.94
2019-01-14T00:53:15.434Z,99168.42
2019-01-14T00:55:47.304Z,99157.05
2019-01-14T00:58:19.117Z,99176.06
2019-01-14T01:00:51.102Z,99181.21
2019-01-14T01:03:22.974Z,99180.97
2019-01-14T01:05:54.841Z,99183.14
2019-01-14T01:08:26.851Z,99188.77
2019-01-14T01:10:58.716Z,99185.24
2019-01-14T01:13:30.621Z,99200.25
2019-01-14T01:16:02.486Z,99195.16
2019-01-14T01:18:34.428Z,99213.16
2019-01-14T01:21:06.493Z,99202.52
2019-01-14T01:23:38.408Z,99219.62
2019-01-14T01:26:10.259Z,99212.02
2019-01-14T01:28:42.106Z,99206.58
2019-01-14T01:31:13.937Z,99213.41
2019-01-14T01:33:45.784Z,99215.33
2019-01-14T01:36:17.648Z,99216.03
2019-01-14T01:38:49.516Z,99216.23
2019-01-14T01:41:21.421Z,99227.48
2019-01-14T01:43:53.250Z,99226.38
2019-01-14T01:46:25.125Z,99239.13
2019-01-14T01:48:57.040Z,99260.39
2019-01-14T01:51:28.902Z,99259.98
2019-01-14T01:54:00.764Z,99278.22
2019-01-14T01:56:32.619Z,99286.11
2019-01-14T01:59:04.508Z,99276.95
2019-01-14T02:01:36.344Z,99281.98
2019-01-14T02:04:08.289Z,99292.98
2019-01-14T02:06:40.145Z,99301.38
2019-01-14T02:09:12.049Z,99308.44
2019-01-14T02:11:43.937Z,99314.78
2019-01-14T02:14:15.855Z,99322.42
2019-01-14T02:16:48.340Z,99320.86
2019-01-14T02:19:20.187Z,99320.33
2019-01-14T02:21:52.050Z,99319.43
2019-01-14T02:24:24.057Z,99327.28
2019-01-14T02:26:55.906Z,99338.76
2019-01-14T02:29:27.810Z,99336.48
2019-01-14T02:31:59.759Z,99339.75
2019-01-14T02:34:31.666Z,99345.23
2019-01-14T02:37:03.532Z,99351.45
2019-01-14T02:39:35.387Z,99354.34
2019-01-14T02:42:07.258Z,99360.34
2019-01-14T02:44:39.242Z,99361.28
2019-01-14T02:47:11.103Z,99361.47
2019-01-14T02:49:42.981Z,99367.82
2019-01-14T02:52:15.398Z,99367.82
2019-01-14T02:54:47.232Z,99367.22
2019-01-14T02:57:19.094Z,99371.74
2019-01-14T02:59:50.929Z,99367.67
2019-01-14T03:02:22.780Z,99365.70
2019-01-14T03:04:54.704Z,99368.12
2019-01-14T03:07:26.586Z,99368.86
2019-01-14T03:09:58.492Z,99379.98
2019-01-14T03:12:30.394Z,99379.25
2019-01-14T03:15:02.213Z,99377.41
2019-01-14T03:17:34.078Z,99384.41
2019-01-14T03:20:08.686Z,99382.98
2019-01-14T03:22:40.662Z,99393.07
2019-01-14T03:25:13.363Z,99397.03
2019-01-14T03:27:45.197Z,99396.25
2019-01-14T03:30:19.884Z,99388.85
2019-01-14T03:32:51.761Z,99392.73
2019-01-14T03:35:23.606Z,99392.07
2019-01-14T03:37:55.453Z,99394.49
2019-01-14T03:40:27.322Z,99396.59
2019-01-14T03:42:59.199Z,99409.52
2019-01-14T03:45:31.036Z,99414.41
2019-01-14T03:48:02.933Z,99424.84
2019-01-14T03:50:34.727Z,99428.17
2019-01-14T03:53:06.662Z,99430.11
2019-01-14T03:55:38.496Z,99428.61
2019-01-14T03:58:10.397Z,99427.87
2019-01-14T04:00:42.519Z,99440.30
2019-01-14T04:03:14.398Z,99440.16
2019-01-14T04:05:46.256Z,99449.54
2019-01-14T04:08:18.121Z,99453.31
2019-01-14T04:10:50.002Z,99449.12
2019-01-14T04:13:21.852Z,99445.34
2019-01-14T04:15:53.714Z,99449.31
2019-01-14T04:18:25.585Z,99449.72
2019-01-14T04:20:57.442Z,99450.09
2019-01-14T04:23:29.289Z,99449.72
2019-01-14T04:26:01.144Z,99450.33
2019-01-14T04:28:32.961Z,99447.82
2019-01-14T04:31:04.826Z,99453.02
2019-01-14T04:33:36.678Z,99458.69
2019-01-14T04:36:08.516Z,99472.11
2019-01-14T04:38:41.153Z,99469.87
2019-01-14T04:41:12.981Z,99471.44
2019-01-14T04:43:44.847Z,99468.04
2019-01-14T04:46:16.689Z,99464.41
2019-01-14T04:48:48.554Z,99479.96
2019-01-14T04:51:20.438Z,99477.34
2019-01-14T04:53:52.330Z,99479.17
2019-01-14T04:56:24.195Z,99476.97
2019-01-14T04:58:56.141Z,99484.30
2019-01-14T05:01:27.989Z,99482.58
2019-01-14T05:03:59.857Z,99472.90
2019-01-14T05:06:32.725Z,99489.94
2019-01-14T05:09:06.888Z,99490.34
2019-01-14T05:11:38.735Z,99498.55
2019-01-14T05:14:10.593Z,99500.38
2019-01-14T05:16:42.515Z,99499.97
2019-01-14T05:19:14.397Z,99498.36
2019-01-14T05:21:46.264Z,99501.42
2019-01-14T05:24:18.136Z,99507.52
2019-01-14T05:26:49.978Z,99503.59
2019-01-14T05:29:21.842Z,99512.15
2019-01-14T05:31:53.692Z,99512.59
2019-01-14T05:34:25.500Z,99519.48
2019-01-14T05:36:57.406Z,99521.53
2019-01-14T05:39:29.270Z,99518.06
2019-01-14T05:42:01.108Z,99521.57
2019-01-14T05:44:32.965Z,99522.84
2019-01-14T05:47:04.944Z,99527.21
2019-01-14T05:49:36.793Z,99541.08
2019-01-14T05:52:08.711Z,99545.56
2019-01-14T05:54:40.596Z,99551.37
2019-01-14T05:57:12.464Z,99560.02
2019-01-14T05:59:44.360Z,99561.25
2019-01-14T06:02:16.714Z,99563.08
2019-01-14T06:04:48.679Z,99570.41
2019-01-14T06:07:20.627Z,99576.50
2019-01-14T06:09:52.529Z,99572.13
2019-01-14T06:12:24.383Z,99576.46
2019-01-14T06:14:56.347Z,99584.79
2019-01-14T06:17:28.400Z,99584.92
2019-01-14T06:20:00.881Z,99594.36
2019-01-14T06:22:35.059Z,99597.38
2019-01-14T06:25:09.180Z,99597.87
2019-01-14T06:27:41.058Z,99594.88
2019-01-14T06:30:19.739Z,99595.73
2019-01-14T06:32:51.534Z,99602.27
2019-01-14T06:35:23.567Z,99605.67
2019-01-14T06:37:55.418Z,99604.75
2019-01-14T06:40:27.233Z,99600.83
2019-01-14T06:42:59.073Z,99600.97
2019-01-14T06:45:30.953Z,99604.58
2019-01-14T06:48:02.842Z,99610.49
2019-01-14T06:50:34.700Z,99616.59
2019-01-14T06:53:06.708Z,99628.42
2019-01-14T06:55:38.655Z,99620.58
2019-01-14T06:58:10.699Z,99626.59
2019-01-14T07:00:42.557Z,99630.42
2019-01-14T07:03:14.397Z,99644.80
2019-01-14T07:05:46.296Z,99642.36
2019-01-14T07:08:18.117Z,99658.77
2019-01-14T07:10:51.417Z,99666.62
2019-01-14T07:13:24.907Z,99684.31
2019-01-14T07:15:56.806Z,99695.71
2019-01-14T07:18:28.678Z,99694.80
2019-01-14T07:21:00.534Z,99705.54
2019-01-14T07:23:32.371Z,99706.75
2019-01-14T07:26:04.223Z,99712.52
2019-01-14T07:28:36.086Z,99719.23
2019-01-14T07:31:07.955Z,99735.84
2019-01-14T07:33:39.798Z,99736.35
2019-01-14T07:36:11.702Z,99746.30
2019-01-14T07:38:43.522Z,99751.70
2019-01-14T07:41:15.403Z,99760.02
2019-01-14T07:43:47.300Z,99761.28
2019-01-14T07:46:19.208Z,99763.44
2019-01-14T07:48:51.117Z,99767.80
2019-01-14T07:51:23.035Z,99767.41
2019-01-14T07:53:54.917Z,99775.61
2019-01-14T07:56:26.919Z,99784.36
2019-01-14T07:58:59.072Z,99779.17
2019-01-14T08:01:30.936Z,99783.45
2019-01-14T08:04:02.794Z,99790.39
2019-01-14T08:06:34.652Z,99803.36
2019-01-14T08:09:09.458Z,99799.83
2019-01-14T08:11:41.355Z,99802.39
2019-01-14T08:14:14.226Z,99809.28
2019-01-14T08:16:46.187Z,99803.91
2019-01-14T08:19:18.030Z,99806.00
2019-01-14T08:21:49.965Z,99808.61
2019-01-14T08:24:21.795Z,99808.94
2019-01-14T08:26:53.731Z,99816.69
2019-01-14T08:29:25.598Z,99816.99
2019-01-14T08:31:57.608Z,99815.66
2019-01-14T08:34:29.466Z,99819.47
2019-01-14T08:37:01.358Z,99829.02
2019-01-14T08:39:33.217Z,99834.19
2019-01-14T08:42:05.289Z,99842.89
2019-01-14T08:44:41.622Z,99851.09
2019-01-14T08:47:13.495Z,99858.67
2019-01-14T08:49:47.525Z,99856.72
2019-01-14T08:52:19.439Z,99857.83
2019-01-14T08:54:51.400Z,99864.50
2019-01-14T08:57:23.264Z,99859.88
2019-01-14T08:59:55.064Z,99860.42
2019-01-14T09:02:27.015Z,99875.80
2019-01-14T09:04:59.210Z,99882.52
2019-01-14T09:07:31.125Z,99892.17
2019-01-14T09:10:03.014Z,99892.64
2019-01-14T09:12:34.885Z,99890.37
2019-01-14T09:15:09.311Z,99892.38
2019-01-14T09:17:41.491Z,99896.47
2019-01-14T09:20:17.245Z,99907.48
2019-01-14T09:22:49.146Z,99907.80
2019-01-14T09:25:20.953Z,99907.48
2019-01-14T09:27:52.901Z,99914.12
2019-01-14T09:30:26.528Z,99913.22
2019-01-14T09:32:58.348Z,99919.21
2019-01-14T09:35:30.197Z,99909.66
2019-01-14T09:38:02.064Z,99910.58
2019-01-14T09:40:33.895Z,99912.37
2019-01-14T09:43:05.830Z,99902.84
2019-01-14T09:45:37.669Z,99911.05
2019-01-14T09:48:09.519Z,99906.27
2019-01-14T09:50:41.385Z,99920.89
2019-01-14T09:53:13.217Z,99923.78
2019-01-14T09:55:45.108Z,99927.37
2019-01-14T09:58:16.915Z,99932.84
2019-01-14T10:00:48.814Z,99930.80
2019-01-14T10:03:20.635Z,99938.36
2019-01-14T10:05:52.494Z,99939.83
2019-01-14T10:08:24.345Z,99951.03
2019-01-14T10:10:56.212Z,99956.45
2019-01-14T10:13:28.175Z,99952.80
2019-01-14T10:16:00.032Z,99969.45
2019-01-14T10:18:31.899Z,99963.98
2019-01-14T10:21:03.775Z,99975.84
2019-01-14T10:23:35.663Z,99969.68
2019-01-14T10:26:08.017Z,99981.60
2019-01-14T10:28:39.939Z,99984.45
2019-01-14T10:31:11.772Z,99972.86
2019-01-14T10:33:43.654Z,99980.50
2019-01-14T10:36:15.445Z,99986.20
2019-01-14T10:38:50.540Z,99984.95
2019-01-14T10:41:20.858Z,99987.14
2019-01-14T10:43:52.714Z,99982.02
2019-01-14T10:46:24.597Z,99992.20
2019-01-14T10:48:56.422Z,99996.78
2019-01-14T10:51:28.271Z,99992.92
2019-01-14T10:54:00.115Z,99988.62
2019-01-14T10:56:31.945Z,99991.99
2019-01-14T10:59:04.040Z,99998.30
2019-01-14T11:01:35.937Z,100000.12
2019-01-14T11:04:07.782Z,99994.55
2019-01-14T11:06:39.597Z,99998.55
2019-01-14T11:09:11.474Z,99995.52
2019-01-14T11:11:43.307Z,99996.78
2019-01-14T11:14:15.114Z,99999.33
2019-01-14T11:16:47.001Z,100000.82
2019-01-14T11:19:18.905Z,100002.30
2019-01-14T11:21:50.752Z,100005.81
2019-01-14T11:24:22.637Z,100011.47
2019-01-14T11:26:54.483Z,100013.19
2019-01-14T11:29:52.000Z,100028.80
2019-01-14T11:32:24.676Z,100023.86
2019-01-14T11:34:56.554Z,100029.94
2019-01-14T11:37:28.414Z,100029.75
2019-01-14T11:40:00.327Z,100034.70
2019-01-14T11:42:32.298Z,100036.13
2019-01-14T11:45:04.713Z,100037.63
2019-01-14T11:47:36.601Z,100045.69
2019-01-14T11:50:13.668Z,100044.58
2019-01-14T11:52:45.684Z,100037.60
2019-01-14T11:55:17.581Z,100044.54
2019-01-14T11:57:49.451Z,100053.64
2019-01-14T12:00:26.603Z,100047.95
2019-01-14T12:02:58.486Z,100048.42
2019-01-14T12:05:30.445Z,100054.44
2019-01-14T12:08:02.286Z,100056.38
2019-01-14T12:10:34.208Z,100060.19
2019-01-14T12:13:05.992Z,100067.47
2019-01-14T12:15:37.841Z,100058.99
2019-01-14T12:18:09.714Z,100060.19
2019-01-14T12:20:41.538Z,100063.39
2019-01-14T12:23:13.406Z,100072.70
2019-01-14T12:25:45.248Z,100083.00
2019-01-14T12:28:17.095Z,100075.15
2019-01-14T12:30:49.172Z,100071.10
2019-01-14T12:33:21.044Z,100065.27
2019-01-14T12:35:52.840Z,100077.65
2019-01-14T12:38:24.648Z,100077.14
2019-01-14T12:40:56.575Z,100069.28
2019-01-14T12:43:28.399Z,100068.03
2019-01-14T12:46:00.258Z,100070.36
2019-01-14T12:48:32.119Z,100076.53
2019-01-14T12:51:03.952Z,100090.77
2019-01-14T12:53:35.842Z,100087.73
2019-01-14T12:56:07.698Z,100086.87
2019-01-14T12:58:39.582Z,100097.53
2019-01-14T13:01:11.392Z,100096.72
2019-01-14T13:03:43.271Z,100091.19
2019-01-14T13:06:15.107Z,100092.55
2019-01-14T13:08:46.962Z,100094.11
2019-01-14T13:11:23.199Z,100098.28
2019-01-14T13:13:52.491Z,100105.29
2019-01-14T13:16:25.509Z,100121.72
2019-01-14T13:18:57.331Z,100100.37
2019-01-14T13:21:29.172Z,100104.13
2019-01-14T13:24:01.016Z,100104.16
2019-01-14T13:26:32.869Z,100098.64
2019-01-14T13:29:04.788Z,100089.65
2019-01-14T13:31:36.624Z,100095.88
2019-01-14T13:34:08.695Z,100088.98
2019-01-14T13:36:40.636Z,100093.73
2019-01-14T13:39:12.764Z,100097.39
2019-01-14T13:41:44.631Z,100105.23
2019-01-14T13:44:16.520Z,100110.06
2019-01-14T13:46:49.550Z,100114.39
2019-01-14T13:49:21.426Z,100124.94
2019-01-14T13:51:53.268Z,100126.48
2019-01-14T13:54:25.134Z,100127.77
2019-01-14T13:56:56.966Z,100133.49
2019-01-14T13:59:28.906Z,100140.45
2019-01-14T14:02:00.737Z,100142.95
2019-01-14T14:04:32.550Z,100144.67
2019-01-14T14:07:04.440Z,100156.86
2019-01-14T14:09:41.211Z,100160.72
2019-01-14T14:12:09.815Z,100169.80
2019-01-14T14:14:41.745Z,100183.97
2019-01-14T14:17:13.635Z,100191.66
2019-01-14T14:19:45.477Z,100195.67
2019-01-14T14:22:17.328Z,100211.11
2019-01-14T14:24:49.223Z,100214.44
2019-01-14T14:27:21.042Z,100210.90
2019-01-14T14:29:52.904Z,100217.89
2019-01-14T14:32:24.780Z,100219.95
2019-01-14T14:34:56.637Z,100227.52
2019-01-14T14:37:28.514Z,100230.27
2019-01-14T14:40:00.351Z,100237.65
2019-01-14T14:42:32.241Z,100239.29
2019-01-14T14:45:04.772Z,100237.98
2019-01-14T14:47:36.675Z,100242.84
2019-01-14T14:50:11.644Z,100248.58
2019-01-14T14:52:43.758Z,100243.05
2019-01-14T14:55:15.599Z,100243.18
2019-01-14T14:57:47.482Z,100247.86
2019-01-14T15:00:21.410Z,100242.16
2019-01-14T15:02:53.354Z,100253.70
2019-01-14T15:05:25.287Z,100257.54
2019-01-14T15:07:57.162Z,100258.48
2019-01-14T15:10:29.000Z,100264.31
2019-01-14T15:13:00.849Z,100268.88
2019-01-14T15:15:32.657Z,100280.97
2019-01-14T15:18:04.804Z,100279.78
2019-01-14T15:20:36.690Z,100275.98
2019-01-14T15:23:08.599Z,100302.72
2019-01-14T15:25:40.451Z,100309.36
2019-01-14T15:28:12.239Z,100310.67
2019-01-14T15:30:44.056Z,100311.97
2019-01-14T15:33:15.853Z,100322.53
2019-01-14T15:35:47.771Z,100322.41
2019-01-14T15:38:19.604Z,100331.27
2019-01-14T15:40:51.512Z,100338.00
2019-01-14T15:43:23.527Z,100334.73
2019-01-14T15:45:55.439Z,100334.48
2019-01-14T15:48:27.300Z,100332.45
2019-01-14T15:50:59.151Z,100331.63
2019-01-14T15:53:31.047Z,100335.12
2019-01-14T15:56:02.978Z,100341.16
2019-01-14T15:58:36.930Z,100340.38
2019-01-14T16:01:08.743Z,100345.45
2019-01-14T16:03:40.657Z,100356.38
2019-01-14T16:06:12.543Z,100352.37
2019-01-14T16:08:44.376Z,100360.69
2019-01-14T16:11:16.242Z,100360.30
2019-01-14T16:13:48.138Z,100360.30
2019-01-14T16:16:19.964Z,100359.34
2019-01-14T16:18:51.812Z,100359.33
2019-01-14T16:21:23.668Z,100360.92
2019-01-14T16:23:55.499Z,100371.71
2019-01-14T16:26:27.355Z,100366.92
2019-01-14T16:28:59.208Z,100380.77
2019-01-14T16:31:31.073Z,100384.33
2019-01-14T16:34:02.905Z,100379.16
2019-01-14T16:36:34.772Z,100382.65
2019-01-14T16:39:09.475Z,100386.13
2019-01-14T16:41:41.335Z,100389.56
2019-01-14T16:44:13.160Z,100398.36
2019-01-14T16:46:45.006Z,100402.23
2019-01-14T16:49:16.887Z,100391.83
2019-01-14T16:51:48.716Z,100405.33
2019-01-14T16:54:20.550Z,100409.38
2019-01-14T16:56:52.392Z,100410.38
2019-01-14T16:59:24.207Z,100415.73
2019-01-14T17:01:56.202Z,100420.52
2019-01-14T17:04:28.076Z,100423.13
2019-01-14T17:06:59.988Z,100421.08
2019-01-14T17:09:31.909Z,100421.05
2019-01-14T17:12:03.842Z,100422.91
2019-01-14T17:14:35.699Z,100418.95
2019-01-14T17:17:07.547Z,100427.22
2019-01-14T17:19:39.391Z,100431.88
2019-01-14T17:22:11.210Z,100437.96
2019-01-14T17:24:43.070Z,100439.79
2019-01-14T17:27:14.896Z,100434.09
2019-01-14T17:29:46.848Z,100440.14
2019-01-14T17:32:18.678Z,100445.80
2019-01-14T17:34:50.607Z,100438.48
2019-01-14T17:37:22.492Z,100444.66
2019-01-14T17:39:54.336Z,100450.23
2019-01-14T17:42:26.240Z,100455.92
2019-01-14T17:44:58.239Z,100458.19
2019-01-14T17:47:30.129Z,100460.87
2019-01-14T17:50:01.981Z,100460.96
2019-01-14T17:52:33.814Z,100456.69
2019-01-14T17:55:05.995Z,100456.77
2019-01-14T17:57:37.902Z,100464.48
2019-01-14T18:00:15.960Z,100466.66
2019-01-14T18:02:47.890Z,100473.30
2019-01-14T18:05:19.713Z,100476.77
2019-01-14T18:07:51.605Z,100480.25
2019-01-14T18:10:23.474Z,100496.34
2019-01-14T18:12:55.360Z,100488.52
2019-01-14T18:15:27.171Z,100493.77
2019-01-14T18:17:59.003Z,100499.89
2019-01-14T18:20:30.903Z,100501.56
2019-01-14T18:23:02.701Z,100509.10
2019-01-14T18:25:34.531Z,100515.63
2019-01-14T18:28:06.535Z,100522.14
2019-01-14T18:30:38.450Z,100524.28
2019-01-14T18:33:10.294Z,100529.03
2019-01-14T18:35:42.090Z,100532.18
2019-01-14T18:38:14.003Z,100533.52
2019-01-14T18:40:47.275Z,100535.30
2019-01-14T18:43:19.275Z,100544.39
2019-01-14T18:45:51.117Z,100547.83
2019-01-14T18:48:22.945Z,100549.20
2019-01-14T18:50:55.405Z,100545.22
2019-01-14T18:53:27.334Z,100552.14
2019-01-14T18:55:59.199Z,100563.92
2019-01-14T18:58:31.112Z,100554.35
2019-01-14T19:01:02.933Z,100559.57
2019-01-14T19:03:34.839Z,100557.76
2019-01-14T19:06:06.856Z,100560.48
2019-01-14T19:08:38.669Z,100567.91
2019-01-14T19:11:12.007Z,100564.49
2019-01-14T19:13:43.855Z,100564.12
2019-01-14T19:16:16.410Z,100578.00
2019-01-14T19:18:48.280Z,100575.86
2019-01-14T19:21:20.110Z,100576.77
2019-01-14T19:23:51.955Z,100583.28
2019-01-14T19:26:23.824Z,100587.59
2019-01-14T19:28:55.738Z,100590.17
2019-01-14T19:31:27.573Z,100588.44
2019-01-14T19:33:59.416Z,100588.44
2019-01-14T19:36:31.579Z,100591.55
2019-01-14T19:39:04.456Z,100591.11
2019-01-14T19:41:36.294Z,100600.67
2019-01-14T19:44:08.118Z,100601.97
2019-01-14T19:46:40.019Z,100591.94
2019-01-14T19:49:11.896Z,100597.16
2019-01-14T19:51:43.730Z,100604.98
2019-01-14T19:54:15.596Z,100603.68
2019-01-14T19:56:47.438Z,100598.87
2019-01-14T19:59:19.303Z,100594.95
2019-01-14T20:01:51.199Z,100604.52
2019-01-14T20:04:23.307Z,100606.78
2019-01-14T20:06:55.167Z,100612.41
2019-01-14T20:09:27.027Z,100617.25
2019-01-14T20:11:58.965Z,100612.00
2019-01-14T20:14:30.913Z,100611.97
2019-01-14T20:17:02.813Z,100615.02
2019-01-14T20:19:34.677Z,100616.31
2019-01-14T20:22:06.698Z,100617.16
2019-01-14T20:24:38.559Z,100622.44
2019-01-14T20:27:10.419Z,100626.78
2019-01-14T20:29:42.365Z,100630.69
2019-01-14T20:32:14.226Z,100637.21
2019-01-14T20:34:46.109Z,100639.83
2019-01-14T20:37:17.915Z,100640.69
2019-01-14T20:39:50.045Z,100645.94
2019-01-14T20:42:22.364Z,100638.14
2019-01-14T20:44:54.416Z,100644.60
2019-01-14T20:47:26.320Z,100642.80
2019-01-14T20:49:58.242Z,100644.63
2019-01-14T20:52:30.123Z,100643.30
2019-01-14T20:55:02.143Z,100638.11
2019-01-14T20:57:34.101Z,100640.72
2019-01-14T21:00:12.132Z,100644.56
2019-01-14T21:02:44.027Z,100650.28
2019-01-14T21:05:16.321Z,100650.72
2019-01-14T21:07:48.258Z,100643.77
2019-01-14T21:10:20.416Z,100645.01
2019-01-14T21:12:52.391Z,100643.79
2019-01-14T21:15:24.305Z,100639.91
2019-01-14T21:17:56.170Z,100647.30
2019-01-14T21:20:28.163Z,100646.43
2019-01-14T21:23:00.171Z,100649.06
2019-01-14T21:25:32.244Z,100653.02
2019-01-14T21:28:04.692Z,100650.89
2019-01-14T21:30:36.914Z,100653.50
2019-01-14T21:33:09.015Z,100655.27
2019-01-14T21:35:41.003Z,100659.67
2019-01-14T21:38:12.881Z,100656.14
2019-01-14T21:40:44.843Z,100661.81
2019-01-14T21:43:16.868Z,100660.13
2019-01-14T21:45:48.872Z,100661.09
2019-01-14T21:48:21.066Z,100661.05
2019-01-14T21:50:53.175Z,100669.84
2019-01-14T21:53:25.037Z,100670.75
2019-01-14T21:55:56.934Z,100666.45
2019-01-14T21:58:29.038Z,100663.44
2019-01-14T22:01:01.161Z,100664.33
2019-01-14T22:03:33.357Z,100662.64
2019-01-14T22:06:05.546Z,100657.05
2019-01-14T22:08:37.621Z,100661.01
2019-01-14T22:11:09.965Z,100660.63
2019-01-14T22:13:41.888Z,100656.33
2019-01-14T22:16:14.240Z,100665.06
2019-01-14T22:18:46.370Z,100666.39
2019-01-14T22:21:18.303Z,100661.17
2019-01-14T22:23:50.452Z,100660.78
2019-01-14T22:26:22.702Z,100664.30
2019-01-14T22:28:55.015Z,100660.03
2019-01-14T22:31:26.914Z,100666.95
2019-01-14T22:33:58.985Z,100669.59
2019-01-14T22:36:31.040Z,100662.27
2019-01-14T22:39:04.759Z,100667.42
2019-01-14T22:41:36.705Z,100675.28
2019-01-14T22:44:08.696Z,100679.64
2019-01-14T22:46:40.553Z,100682.28
2019-01-14T22:49:12.572Z,100682.73
2019-01-14T22:51:44.482Z,100682.78
2019-01-14T22:54:16.391Z,100683.23
2019-01-14T22:56:48.209Z,100678.91
2019-01-14T22:59:20.205Z,100674.16
2019-01-14T23:01:53.223Z,100677.65
2019-01-14T23:04:25.139Z,100678.50
2019-01-14T23:06:56.970Z,100677.66
2019-01-14T23:09:28.831Z,100677.70
2019-01-14T23:12:00.661Z,100676.42
2019-01-14T23:14:32.574Z,100678.57
2019-01-14T23:17:04.602Z,100682.45
2019-01-14T23:19:36.442Z,100689.31
2019-01-14T23:22:08.405Z,100692.34
2019-01-14T23:24:40.297Z,100683.77
2019-01-14T23:27:12.165Z,100684.23
2019-01-14T23:29:44.153Z,100686.40
2019-01-14T23:32:16.310Z,100678.98
2019-01-14T23:34:48.195Z,100677.69
2019-01-14T23:37:20.188Z,100668.09
2019-01-14T23:39:52.139Z,100667.33
2019-01-14T23:42:24.088Z,100669.99
2019-01-14T23:44:55.981Z,100668.72
2019-01-14T23:47:28.178Z,100664.39
2019-01-14T23:50:00.059Z,100677.87
2019-01-14T23:52:31.918Z,100670.11
2019-01-14T23:55:04.004Z,100670.56
2019-01-14T23:57:36.073Z,100679.25
